createdAt,value
2022-09-15T00:00:29.468Z,86.26
2022-09-15T00:02:56.252Z,85.98
2022-09-15T00:05:23.005Z,85.77
2022-09-15T00:07:49.943Z,85.51
2022-09-15T00:10:17.451Z,85.42
2022-09-15T00:12:44.639Z,85.69
2022-09-15T00:15:14.830Z,86.05
2022-09-15T00:17:43.274Z,86.19
2022-09-15T00:20:11.024Z,86.35
2022-09-15T00:22:38.047Z,86.24
2022-09-15T00:25:05.627Z,86.38
2022-09-15T00:27:33.777Z,86.34
2022-09-15T00:30:00.886Z,86.46
2022-09-15T00:32:28.175Z,86.50
2022-09-15T00:34:55.166Z,86.62
2022-09-15T00:37:22.499Z,86.70
2022-09-15T00:39:49.387Z,86.89
2022-09-15T00:42:18.158Z,86.62
2022-09-15T00:44:50.157Z,86.51
2022-09-15T00:47:20.253Z,86.47
2022-09-15T00:49:53.921Z,86.59
2022-09-15T00:52:27.498Z,86.60
2022-09-15T00:55:08.254Z,86.55
2022-09-15T00:57:44.818Z,86.41
2022-09-15T01:00:15.685Z,86.51
2022-09-15T01:02:44.577Z,86.23
2022-09-15T01:05:15.599Z,86.11
2022-09-15T01:07:48.027Z,86.28
2022-09-15T01:10:30.555Z,86.27
2022-09-15T01:13:03.758Z,86.37
2022-09-15T01:15:49.212Z,86.26
2022-09-15T01:18:24.350Z,86.13
2022-09-15T01:21:09.913Z,86.30
2022-09-15T01:23:42.848Z,86.28
2022-09-15T01:26:12.395Z,86.15
2022-09-15T01:29:00.141Z,85.96
2022-09-15T01:31:59.795Z,85.35
2022-09-15T01:34:31.160Z,84.94
2022-09-15T01:37:05.973Z,84.79
2022-09-15T01:39:39.360Z,84.54
2022-09-15T01:42:10.298Z,83.82
2022-09-15T01:44:52.195Z,83.90
2022-09-15T01:47:21.112Z,83.74
2022-09-15T01:49:54.886Z,84.04
2022-09-15T01:52:23.501Z,83.71
2022-09-15T01:54:55.293Z,83.79
2022-09-15T01:57:22.478Z,83.54
2022-09-15T01:59:50.495Z,83.08
2022-09-15T02:02:31.269Z,82.98
2022-09-15T02:05:08.290Z,82.75
2022-09-15T02:07:53.670Z,82.60
2022-09-15T02:10:30.955Z,82.31
2022-09-15T02:13:39.187Z,82.26
2022-09-15T02:16:15.998Z,82.55
2022-09-15T02:19:14.750Z,82.59
2022-09-15T02:21:53.945Z,82.92
2022-09-15T02:24:34.771Z,83.12
2022-09-15T02:27:03.350Z,83.50
2022-09-15T02:29:33.797Z,83.71
2022-09-15T02:32:06.996Z,83.88
2022-09-15T02:34:40.431Z,83.90
2022-09-15T02:37:09.726Z,84.20
2022-09-15T02:39:42.253Z,84.23
2022-09-15T02:42:09.614Z,84.37
2022-09-15T02:44:36.462Z,84.19
2022-09-15T02:47:04.010Z,84.29
2022-09-15T02:49:30.810Z,84.61
2022-09-15T02:51:57.604Z,84.79
2022-09-15T02:54:24.303Z,84.95
2022-09-15T02:56:50.969Z,85.17
2022-09-15T02:59:17.608Z,85.24
2022-09-15T03:01:45.005Z,85.40
2022-09-15T03:04:11.742Z,85.24
2022-09-15T03:06:38.581Z,84.98
2022-09-15T03:09:08.411Z,84.63
2022-09-15T03:11:36.528Z,84.34
2022-09-15T03:14:06.482Z,84.01
2022-09-15T03:16:34.824Z,83.66
2022-09-15T03:19:02.623Z,83.49
2022-09-15T03:21:30.050Z,82.18
2022-09-15T03:23:58.878Z,82.27
2022-09-15T03:26:25.668Z,82.41
2022-09-15T03:28:52.506Z,82.20
2022-09-15T03:31:19.939Z,82.02
2022-09-15T03:33:47.368Z,81.65
2022-09-15T03:36:14.306Z,81.52
2022-09-15T03:38:41.077Z,80.77
2022-09-15T03:41:11.381Z,79.91
2022-09-15T03:43:38.599Z,79.56
2022-09-15T03:46:07.024Z,79.67
2022-09-15T03:48:35.630Z,78.58
2022-09-15T03:51:05.882Z,77.84
2022-09-15T03:53:34.399Z,77.67
2022-09-15T03:56:19.370Z,77.25
2022-09-15T03:58:46.113Z,77.52
2022-09-15T04:01:13.708Z,77.67
2022-09-15T04:03:46.388Z,77.33
2022-09-15T04:06:16.534Z,77.01
2022-09-15T04:08:43.699Z,76.80
2022-09-15T04:11:12.788Z,76.43
2022-09-15T04:13:42.172Z,76.34
2022-09-15T04:16:12.445Z,75.88
2022-09-15T04:18:40.178Z,76.27
2022-09-15T04:21:10.704Z,76.18
2022-09-15T04:23:37.854Z,76.23
2022-09-15T04:26:08.340Z,76.16
2022-09-15T04:28:37.287Z,76.49
2022-09-15T04:31:12.877Z,76.03
2022-09-15T04:33:41.561Z,76.21
2022-09-15T04:36:16.378Z,76.05
2022-09-15T04:38:43.755Z,76.10
2022-09-15T04:41:11.373Z,75.79
2022-09-15T04:43:38.723Z,75.66
2022-09-15T04:46:05.638Z,76.34
2022-09-15T04:48:32.556Z,75.87
2022-09-15T04:51:06.847Z,75.44
2022-09-15T04:53:35.713Z,75.82
2022-09-15T04:56:03.598Z,75.25
2022-09-15T04:58:30.393Z,73.56
2022-09-15T05:00:57.267Z,72.25
2022-09-15T05:03:24.062Z,71.54
2022-09-15T05:05:50.949Z,69.98
2022-09-15T05:08:17.668Z,65.89
2022-09-15T05:10:44.377Z,65.10
2022-09-15T05:13:11.184Z,65.04
2022-09-15T05:15:37.961Z,64.60
2022-09-15T05:18:04.768Z,65.27
2022-09-15T05:20:31.460Z,64.65
2022-09-15T05:22:58.107Z,61.84
2022-09-15T05:25:25.096Z,60.18
2022-09-15T05:27:51.789Z,61.27
2022-09-15T05:30:36.849Z,59.89
2022-09-15T05:33:05.069Z,58.12
2022-09-15T05:35:31.811Z,53.98
2022-09-15T05:37:58.793Z,52.77
2022-09-15T05:40:25.529Z,48.84
2022-09-15T05:42:52.924Z,49.40
2022-09-15T05:45:19.593Z,51.89
2022-09-15T05:47:46.283Z,50.73
2022-09-15T05:50:13.030Z,48.69
2022-09-15T05:52:39.866Z,49.42
2022-09-15T05:55:06.716Z,50.04
2022-09-15T05:57:33.356Z,52.04
2022-09-15T06:00:00.093Z,54.25
2022-09-15T06:02:26.840Z,56.70
2022-09-15T06:04:53.568Z,57.26
2022-09-15T06:07:20.318Z,57.74
2022-09-15T06:09:47.044Z,60.15
2022-09-15T06:12:13.821Z,60.50
2022-09-15T06:14:43.128Z,60.39
2022-09-15T06:17:10.445Z,60.87
2022-09-15T06:19:37.403Z,59.38
2022-09-15T06:22:04.318Z,60.42
2022-09-15T06:24:30.990Z,62.47
2022-09-15T06:26:57.738Z,61.77
2022-09-15T06:29:25.176Z,61.71
2022-09-15T06:31:51.961Z,58.46
2022-09-15T06:34:18.672Z,54.43
2022-09-15T06:36:45.392Z,51.87
2022-09-15T06:39:12.249Z,47.64
2022-09-15T06:42:00.703Z,46.88
2022-09-15T06:44:28.365Z,46.46
2022-09-15T06:46:55.128Z,44.83
2022-09-15T06:49:22.006Z,43.11
2022-09-15T06:51:48.945Z,43.33
2022-09-15T06:54:16.260Z,43.88
2022-09-15T06:56:43.858Z,45.37
2022-09-15T06:59:15.057Z,47.88
2022-09-15T07:01:42.484Z,48.89
2022-09-15T07:04:10.090Z,49.64
2022-09-15T07:06:38.630Z,49.22
2022-09-15T07:09:06.527Z,51.14
2022-09-15T07:11:33.565Z,53.02
2022-09-15T07:14:00.312Z,53.97
2022-09-15T07:16:27.169Z,54.95
2022-09-15T07:18:57.868Z,55.94
2022-09-15T07:21:24.796Z,56.02
2022-09-15T07:23:51.807Z,55.81
2022-09-15T07:26:24.238Z,56.98
2022-09-15T07:29:02.400Z,55.21
2022-09-15T07:31:31.799Z,54.67
2022-09-15T07:34:03.044Z,52.89
2022-09-15T07:36:30.770Z,52.55
2022-09-15T07:38:57.954Z,49.25
2022-09-15T07:41:27.424Z,47.26
2022-09-15T07:43:56.851Z,45.43
2022-09-15T07:46:25.159Z,46.18
2022-09-15T07:48:56.303Z,48.20
2022-09-15T07:51:23.864Z,50.27
2022-09-15T07:53:51.695Z,50.25
2022-09-15T07:56:19.212Z,52.71
2022-09-15T07:58:49.703Z,53.55
2022-09-15T08:01:18.375Z,52.97
2022-09-15T08:03:48.978Z,53.85
2022-09-15T08:06:17.867Z,54.57
2022-09-15T08:08:44.849Z,54.69
2022-09-15T08:11:18.460Z,53.37
2022-09-15T08:13:47.579Z,52.75
2022-09-15T08:16:17.568Z,52.14
2022-09-15T08:18:44.839Z,50.65
2022-09-15T08:21:22.297Z,51.26
2022-09-15T08:23:57.449Z,49.84
2022-09-15T08:26:25.926Z,51.38
2022-09-15T08:28:53.127Z,50.93
2022-09-15T08:31:20.380Z,48.97
2022-09-15T08:33:52.428Z,47.83
2022-09-15T08:36:20.075Z,46.73
2022-09-15T08:38:47.428Z,47.66
2022-09-15T08:41:29.537Z,47.00
2022-09-15T08:44:01.374Z,45.84
2022-09-15T08:46:39.838Z,46.39
2022-09-15T08:49:40.956Z,46.41
2022-09-15T08:52:19.336Z,47.89
2022-09-15T08:54:46.126Z,48.40
2022-09-15T08:57:19.961Z,48.38
2022-09-15T08:59:46.795Z,48.80
2022-09-15T09:02:13.447Z,48.56
2022-09-15T09:05:21.799Z,48.89
2022-09-15T09:08:24.867Z,47.55
2022-09-15T09:10:59.832Z,48.14
2022-09-15T09:13:38.475Z,45.02
2022-09-15T09:16:28.443Z,46.05
2022-09-15T09:19:19.893Z,45.95
2022-09-15T09:21:58.912Z,45.62
2022-09-15T09:24:41.643Z,46.02
2022-09-15T09:27:18.230Z,46.19
2022-09-15T09:30:01.668Z,46.59
2022-09-15T09:32:46.508Z,45.99
2022-09-15T09:35:20.201Z,47.29
2022-09-15T09:37:47.661Z,46.79
2022-09-15T09:40:15.843Z,46.86
2022-09-15T09:42:43.606Z,46.10
2022-09-15T09:45:15.294Z,46.40
2022-09-15T09:47:43.243Z,47.13
2022-09-15T09:50:38.781Z,46.72
2022-09-15T09:53:31.753Z,48.77
2022-09-15T09:56:24.341Z,50.30
2022-09-15T09:58:52.048Z,51.30
2022-09-15T10:01:21.302Z,51.95
2022-09-15T10:03:48.111Z,53.15
2022-09-15T10:06:19.389Z,53.31
2022-09-15T10:09:16.580Z,52.33
2022-09-15T10:11:59.103Z,53.04
2022-09-15T10:14:35.299Z,52.49
2022-09-15T10:17:07.691Z,53.63
2022-09-15T10:19:44.862Z,52.89
2022-09-15T10:22:25.135Z,53.86
2022-09-15T10:24:52.384Z,54.18
2022-09-15T10:27:34.016Z,55.38
2022-09-15T10:30:21.293Z,55.79
2022-09-15T10:32:48.573Z,56.28
2022-09-15T10:35:18.699Z,56.43
2022-09-15T10:37:59.275Z,57.25
2022-09-15T10:40:35.019Z,57.30
2022-09-15T10:43:35.229Z,57.88
2022-09-15T10:46:19.304Z,57.75
2022-09-15T10:48:52.272Z,57.77
2022-09-15T10:51:46.541Z,56.82
2022-09-15T10:54:41.701Z,56.72
2022-09-15T10:57:20.527Z,56.41
2022-09-15T10:59:59.457Z,57.08
2022-09-15T11:02:53.887Z,56.78
2022-09-15T11:05:31.913Z,57.19
2022-09-15T11:08:31.912Z,57.30
2022-09-15T11:11:27.225Z,57.30
2022-09-15T11:14:00.055Z,56.89
2022-09-15T11:16:36.141Z,56.59
2022-09-15T11:19:33.186Z,56.58
2022-09-15T11:22:15.671Z,56.85
2022-09-15T11:25:01.277Z,57.10
2022-09-15T11:27:31.295Z,57.48
2022-09-15T11:30:07.463Z,57.02
2022-09-15T11:33:02.812Z,57.75
2022-09-15T11:35:36.788Z,57.83
2022-09-15T11:38:18.283Z,58.07
2022-09-15T11:40:52.760Z,58.14
2022-09-15T11:43:24.408Z,58.25
2022-09-15T11:45:55.554Z,58.28
2022-09-15T11:48:34.674Z,58.69
2022-09-15T11:51:03.276Z,58.93
2022-09-15T11:53:33.096Z,59.44
2022-09-15T11:56:09.717Z,60.13
2022-09-15T11:58:48.885Z,60.59
2022-09-15T12:01:23.032Z,60.63
2022-09-15T12:04:02.020Z,62.21
2022-09-15T12:06:48.999Z,61.90
2022-09-15T12:09:21.015Z,62.73
2022-09-15T12:11:49.136Z,63.87
2022-09-15T12:14:28.002Z,64.77
2022-09-15T12:16:55.840Z,65.22
2022-09-15T12:19:43.454Z,65.80
2022-09-15T12:22:25.780Z,65.20
2022-09-15T12:25:00.943Z,65.13
2022-09-15T12:27:28.891Z,65.67
2022-09-15T12:29:57.786Z,66.28
2022-09-15T12:32:31.179Z,66.25
2022-09-15T12:34:57.775Z,66.49
2022-09-15T12:37:45.949Z,67.93
2022-09-15T12:40:33.434Z,67.12
2022-09-15T12:43:10.717Z,66.86
2022-09-15T12:45:38.574Z,67.88
2022-09-15T12:48:12.058Z,67.45
2022-09-15T12:50:42.689Z,67.58
2022-09-15T12:56:07.166Z,67.62
2022-09-15T12:58:33.865Z,67.73
2022-09-15T13:01:19.082Z,67.69
2022-09-15T13:03:51.238Z,68.21
2022-09-15T13:06:23.608Z,68.55
2022-09-15T13:08:51.740Z,68.10
2022-09-15T13:11:39.242Z,67.94
2022-09-15T13:14:08.573Z,67.12
2022-09-15T13:16:41.139Z,67.39
2022-09-15T13:19:19.443Z,67.50
2022-09-15T13:21:54.170Z,66.56
2022-09-15T13:24:30.220Z,66.12
2022-09-15T13:26:57.902Z,65.68
2022-09-15T13:29:28.848Z,65.06
2022-09-15T13:32:05.255Z,64.71
2022-09-15T13:40:37.992Z,63.98
2022-09-15T13:43:21.446Z,63.36
2022-09-15T13:46:05.718Z,62.53
2022-09-15T13:48:54.634Z,62.42
2022-09-15T13:51:28.013Z,62.10
2022-09-15T13:54:06.948Z,62.60
2022-09-15T13:56:38.534Z,61.94
2022-09-15T13:59:13.854Z,62.07
2022-09-15T14:01:42.975Z,62.17
2022-09-15T14:04:15.178Z,62.98
2022-09-15T14:06:44.951Z,62.82
2022-09-15T14:09:26.695Z,62.78
2022-09-15T14:12:08.875Z,62.21
2022-09-15T14:14:35.437Z,62.81
2022-09-15T14:17:02.684Z,62.48
2022-09-15T14:19:33.799Z,62.83
2022-09-15T14:22:22.180Z,62.51
2022-09-15T14:24:50.496Z,62.70
2022-09-15T14:27:24.448Z,62.00
2022-09-15T14:29:55.328Z,61.66
2022-09-15T14:32:22.311Z,60.56
2022-09-15T14:34:49.414Z,61.16
2022-09-15T14:37:29.760Z,60.29
2022-09-15T14:39:58.789Z,60.21
2022-09-15T14:42:32.365Z,60.12
2022-09-15T14:47:59.987Z,59.61
2022-09-15T14:50:32.319Z,59.70
2022-09-15T14:53:06.569Z,60.15
2022-09-15T14:55:54.374Z,60.52
2022-09-15T14:58:31.747Z,60.47
2022-09-15T15:01:03.927Z,60.63
2022-09-15T15:03:38.166Z,60.45
2022-09-15T15:06:33.069Z,59.91
2022-09-15T15:09:27.976Z,59.63
2022-09-15T15:12:02.082Z,59.88
2022-09-15T15:14:29.230Z,60.33
2022-09-15T15:17:02.348Z,60.24
2022-09-15T15:19:38.129Z,59.99
2022-09-15T15:22:13.978Z,59.69
2022-09-15T15:24:47.109Z,59.44
2022-09-15T15:27:43.413Z,59.38
2022-09-15T15:30:29.750Z,58.52
2022-09-15T15:33:19.420Z,59.32
2022-09-15T15:35:47.099Z,59.78
2022-09-15T15:38:20.364Z,59.81
2022-09-15T15:40:47.247Z,60.40
2022-09-15T15:43:13.803Z,60.55
2022-09-15T15:46:01.217Z,60.63
2022-09-15T15:48:34.013Z,61.16
2022-09-15T15:51:04.727Z,60.68
2022-09-15T15:53:31.393Z,60.90
2022-09-15T15:55:59.703Z,60.89
2022-09-15T15:58:26.560Z,60.65
2022-09-15T16:00:56.415Z,61.39
2022-09-15T16:03:24.640Z,61.67
2022-09-15T16:06:00.231Z,62.04
2022-09-15T16:08:33.258Z,62.27
2022-09-15T16:11:02.116Z,62.93
2022-09-15T16:13:29.602Z,63.11
2022-09-15T16:15:58.197Z,63.47
2022-09-15T16:18:24.954Z,63.72
2022-09-15T16:20:52.417Z,63.28
2022-09-15T16:23:21.603Z,62.68
2022-09-15T16:25:54.674Z,62.75
2022-09-15T16:28:21.878Z,62.38
2022-09-15T16:30:48.547Z,62.29
2022-09-15T16:33:16.556Z,62.69
2022-09-15T16:35:55.462Z,63.12
2022-09-15T16:38:25.487Z,63.16
2022-09-15T16:40:52.742Z,62.80
2022-09-15T16:43:21.607Z,62.65
2022-09-15T16:45:49.329Z,62.92
2022-09-15T16:48:16.066Z,63.06
2022-09-15T16:51:01.731Z,62.90
2022-09-15T16:53:31.067Z,62.49
2022-09-15T16:55:57.760Z,63.45
2022-09-15T16:58:24.385Z,63.87
2022-09-15T17:00:52.671Z,64.69
2022-09-15T17:03:22.774Z,64.80
2022-09-15T17:05:57.666Z,65.18
2022-09-15T17:08:29.406Z,65.43
2022-09-15T17:10:58.013Z,65.54
2022-09-15T17:13:29.346Z,65.51
2022-09-15T17:15:58.015Z,65.80
2022-09-15T17:18:24.929Z,66.01
2022-09-15T17:20:52.055Z,66.45
2022-09-15T17:23:36.985Z,66.71
2022-09-15T17:26:12.932Z,66.78
2022-09-15T17:28:40.869Z,67.04
2022-09-15T17:31:13.666Z,67.56
2022-09-15T17:33:40.892Z,67.81
2022-09-15T17:36:08.328Z,68.39
2022-09-15T17:38:34.988Z,68.79
2022-09-15T17:41:01.645Z,69.15
2022-09-15T17:43:30.515Z,69.51
2022-09-15T17:45:57.694Z,69.87
2022-09-15T17:48:24.788Z,70.01
2022-09-15T17:50:52.729Z,69.97
2022-09-15T17:53:28.940Z,69.98
2022-09-15T17:55:55.782Z,69.94
2022-09-15T17:58:24.861Z,70.09
2022-09-15T18:00:52.352Z,70.52
2022-09-15T18:03:23.846Z,70.65
2022-09-15T18:05:51.725Z,70.58
2022-09-15T18:08:18.586Z,70.75
2022-09-15T18:10:45.689Z,70.45
2022-09-15T18:13:21.589Z,70.56
2022-09-15T18:15:51.302Z,70.45
2022-09-15T18:18:21.201Z,70.69
2022-09-15T18:20:49.850Z,70.42
2022-09-15T18:23:18.834Z,70.61
2022-09-15T18:25:47.213Z,70.71
2022-09-15T18:28:14.313Z,70.55
2022-09-15T18:30:44.137Z,71.03
2022-09-15T18:33:20.238Z,71.02
2022-09-15T18:35:48.682Z,71.25
2022-09-15T18:38:16.350Z,71.62
2022-09-15T18:40:49.053Z,72.11
2022-09-15T18:43:17.160Z,72.31
2022-09-15T18:45:44.423Z,72.26
2022-09-15T18:48:13.121Z,71.96
2022-09-15T18:50:41.518Z,72.04
2022-09-15T18:53:08.306Z,72.12
2022-09-15T18:55:35.088Z,71.94
2022-09-15T18:58:02.619Z,72.06
2022-09-15T19:00:29.782Z,71.93
2022-09-15T19:02:58.417Z,71.56
2022-09-15T19:05:26.800Z,71.33
2022-09-15T19:07:54.111Z,71.12
2022-09-15T19:10:21.020Z,71.33
2022-09-15T19:12:47.676Z,71.52
2022-09-15T19:15:14.335Z,71.71
2022-09-15T19:17:42.241Z,71.98
2022-09-15T19:20:12.960Z,72.19
2022-09-15T19:22:40.058Z,72.35
2022-09-15T19:25:09.046Z,72.38
2022-09-15T19:27:38.114Z,72.35
2022-09-15T19:30:06.061Z,72.49
2022-09-15T19:32:33.039Z,72.81
2022-09-15T19:34:59.757Z,72.75
2022-09-15T19:37:26.675Z,72.86
2022-09-15T19:39:53.404Z,72.96
2022-09-15T19:42:20.162Z,72.70
2022-09-15T19:44:47.924Z,72.61
2022-09-15T19:47:14.746Z,72.57
2022-09-15T19:49:41.655Z,72.47
2022-09-15T19:52:08.523Z,72.44
2022-09-15T19:54:35.462Z,72.51
2022-09-15T19:57:02.447Z,73.49
2022-09-15T19:59:31.638Z,74.07
2022-09-15T20:01:59.928Z,74.58
2022-09-15T20:04:27.272Z,74.52
2022-09-15T20:06:54.108Z,74.71
2022-09-15T20:09:20.816Z,75.14
2022-09-15T20:11:47.470Z,75.73
2022-09-15T20:14:14.203Z,75.96
2022-09-15T20:16:41.684Z,77.18
2022-09-15T20:19:08.388Z,76.48
2022-09-15T20:21:52.485Z,77.48
2022-09-15T20:24:21.039Z,77.75
2022-09-15T20:26:47.968Z,78.22
2022-09-15T20:29:14.599Z,78.06
2022-09-15T20:31:41.398Z,79.62
2022-09-15T20:34:08.132Z,80.26
2022-09-15T20:36:36.621Z,80.47
2022-09-15T20:39:05.880Z,80.07
2022-09-15T20:41:32.616Z,81.67
2022-09-15T20:44:00.211Z,82.77
2022-09-15T20:46:29.127Z,83.18
2022-09-15T20:48:55.747Z,83.58
2022-09-15T20:51:25.703Z,84.29
2022-09-15T20:53:54.917Z,84.48
2022-09-15T20:56:24.955Z,84.48
2022-09-15T20:58:53.130Z,85.08
2022-09-15T21:01:23.062Z,85.46
2022-09-15T21:03:50.342Z,85.55
2022-09-15T21:06:22.209Z,85.27
2022-09-15T21:08:50.070Z,84.50
2022-09-15T21:11:18.307Z,84.82
2022-09-15T21:13:46.113Z,84.92
2022-09-15T21:16:15.353Z,85.27
2022-09-15T21:18:43.570Z,85.15
2022-09-15T21:21:13.566Z,85.37
2022-09-15T21:23:45.483Z,86.18
2022-09-15T21:26:14.963Z,86.30
2022-09-15T21:28:43.606Z,86.20
2022-09-15T21:31:16.049Z,86.38
2022-09-15T21:33:43.740Z,86.99
2022-09-15T21:36:13.799Z,87.05
2022-09-15T21:38:42.983Z,86.54
2022-09-15T21:41:13.733Z,85.76
2022-09-15T21:43:42.648Z,84.76
2022-09-15T21:46:19.930Z,83.42
2022-09-15T21:48:48.073Z,81.73
2022-09-15T21:51:23.517Z,82.46
2022-09-15T21:53:56.183Z,82.68
2022-09-15T21:56:23.854Z,82.38
2022-09-15T21:58:50.764Z,82.04
2022-09-15T22:01:23.476Z,81.34
2022-09-15T22:03:52.917Z,81.30
2022-09-15T22:06:22.087Z,81.02
2022-09-15T22:08:49.017Z,80.84
2022-09-15T22:11:15.670Z,80.40
2022-09-15T22:13:43.782Z,81.28
2022-09-15T22:16:19.418Z,81.86
2022-09-15T22:18:46.512Z,82.21
2022-09-15T22:21:19.600Z,81.75
2022-09-15T22:23:47.755Z,81.88
2022-09-15T22:26:34.861Z,81.10
2022-09-15T22:29:02.330Z,80.77
2022-09-15T22:31:29.916Z,80.76
2022-09-15T22:33:56.892Z,80.83
2022-09-15T22:36:29.245Z,80.94
2022-09-15T22:39:02.809Z,81.68
2022-09-15T22:41:30.313Z,82.18
2022-09-15T22:43:57.271Z,82.88
2022-09-15T22:46:24.081Z,83.29
2022-09-15T22:48:50.830Z,83.45
2022-09-15T22:51:17.535Z,83.76
2022-09-15T22:53:44.227Z,83.89
2022-09-15T22:56:19.778Z,84.21
2022-09-15T22:58:48.609Z,84.37
2022-09-15T23:01:20.438Z,84.65
2022-09-15T23:03:55.940Z,84.67
2022-09-15T23:06:23.438Z,85.03
2022-09-15T23:08:55.532Z,84.79
2022-09-15T23:11:22.800Z,84.98
2022-09-15T23:13:50.102Z,85.16
2022-09-15T23:16:17.212Z,85.43
2022-09-15T23:18:44.586Z,85.69
2022-09-15T23:21:13.804Z,85.85
2022-09-15T23:23:43.195Z,85.82
2022-09-15T23:26:11.979Z,86.33
2022-09-15T23:28:41.867Z,86.16
2022-09-15T23:31:11.860Z,86.59
2022-09-15T23:33:39.571Z,86.60
2022-09-15T23:36:08.961Z,86.91
2022-09-15T23:38:37.587Z,86.99
2022-09-15T23:41:04.425Z,87.12
2022-09-15T23:43:33.117Z,87.27
2022-09-15T23:46:01.036Z,87.24
2022-09-15T23:48:28.597Z,87.45
2022-09-15T23:50:55.354Z,87.42
2022-09-15T23:53:21.943Z,87.55
2022-09-15T23:55:48.720Z,87.67
2022-09-15T23:58:15.392Z,87.50
